Time;durP1;ratioP1;P1;durP2;ratioP2;P2;SDS_P1;SDS_P2;PMS_P1;PMS_P2;Temp;Humidity;BMP_temperature;BMP_pressure;BME280_temperature;BME280_humidity;BME280_pressure;Samples;Min_cycle;Max_cycle;Signal;HPM_P1;HPM_P2
2022/01/13 05:00:38;;;;;;;49.13;25.75;;;-3.40;99.90;;;;;;5887702;22;91725;-77
2022/01/13 05:03:04;;;;;;;47.50;25.90;;;-3.40;99.90;;;;;;4995894;28;91975;-78
2022/01/13 05:05:30;;;;;;;51.13;26.35;;;-3.10;99.90;;;;;;4997212;28;91352;-77
2022/01/13 05:07:55;;;;;;;47.33;24.95;;;-3.10;99.90;;;;;;4998223;28;89236;-76
2022/01/13 05:10:22;;;;;;;47.17;25.83;;;-3.20;99.90;;;;;;4997855;28;89241;-82
2022/01/13 05:12:53;;;;;;;43.95;24.75;;;-3.30;99.90;;;;;;4995474;28;94362;-77
2022/01/13 05:15:25;;;;;;;47.40;24.40;;;-3.30;99.90;;;;;;4998541;28;90650;-76
2022/01/13 05:18:09;;;;;;;49.05;25.52;;;-3.40;99.90;;;;;;4996368;28;89308;-76
2022/01/13 05:20:50;;;;;;;45.72;23.77;;;-3.30;99.90;;;;;;4996112;28;93008;-76
2022/01/13 05:23:17;;;;;;;50.90;25.70;;;-3.20;99.90;;;;;;4997265;28;89783;-76
2022/01/13 05:25:44;;;;;;;49.33;25.83;;;-3.10;99.90;;;;;;4996091;28;93160;-76
2022/01/13 05:28:10;;;;;;;50.05;25.23;;;-3.10;99.90;;;;;;4998024;28;89279;-76
2022/01/13 05:30:36;;;;;;;43.80;23.80;;;-3.20;99.90;;;;;;5001707;28;88911;-76
2022/01/13 05:33:02;;;;;;;48.97;25.85;;;-3.30;99.90;;;;;;4997610;28;91909;-76
2022/01/13 05:35:28;;;;;;;49.42;25.92;;;-3.30;99.90;;;;;;4999449;28;89222;-76
2022/01/13 05:37:54;;;;;;;54.30;27.40;;;-3.30;99.90;;;;;;4999707;28;90304;-76
2022/01/13 05:40:20;;;;;;;53.50;28.58;;;-3.10;99.90;;;;;;5000795;28;89657;-76
2022/01/13 05:42:45;;;;;;;51.45;26.25;;;-3.10;99.90;;;;;;5000257;28;89175;-76
2022/01/13 05:45:16;;;;;;;53.05;27.80;;;-3.10;99.90;;;;;;4997842;28;91850;-76
2022/01/13 05:47:43;;;;;;;58.85;30.35;;;-3.00;99.90;;;;;;4997514;28;89318;-76
2022/01/13 05:50:10;;;;;;;50.85;27.67;;;-3.00;99.90;;;;;;4995562;28;91737;-76
2022/01/13 05:52:37;;;;;;;55.50;27.67;;;-3.10;99.90;;;;;;4986935;28;89302;-76
2022/01/13 05:55:04;;;;;;;50.97;27.05;;;-3.10;99.90;;;;;;4984174;28;92145;-76
2022/01/13 05:57:30;;;;;;;52.53;26.83;;;-3.00;99.90;;;;;;4985274;28;89450;-76
2022/01/13 05:59:56;;;;;;;47.55;25.25;;;-3.10;99.90;;;;;;4989242;28;89272;-79
2022/01/13 06:02:21;;;;;;;55.30;26.25;;;-3.20;99.90;;;;;;4986400;28;92840;-77
2022/01/13 06:04:47;;;;;;;46.38;24.65;;;-3.30;99.90;;;;;;4987456;28;90811;-77
2022/01/13 06:07:12;;;;;;;55.08;28.08;;;-3.30;99.90;;;;;;4989300;28;89284;-79
2022/01/13 06:09:38;;;;;;;55.45;28.45;;;-3.30;99.90;;;;;;4984967;28;92605;-79
2022/01/13 06:12:04;;;;;;;57.58;27.40;;;-3.20;99.90;;;;;;4992832;28;93027;-78
2022/01/13 06:14:30;;;;;;;51.88;26.13;;;-3.10;99.90;;;;;;4993300;28;89191;-79
2022/01/13 06:16:56;;;;;;;54.72;26.95;;;-3.10;99.90;;;;;;4987080;28;89353;-76
2022/01/13 06:19:21;;;;;;;51.45;26.95;;;-3.30;99.90;;;;;;4989072;28;88977;-77
2022/01/13 06:21:47;;;;;;;49.80;25.50;;;-3.40;99.90;;;;;;4984403;28;91765;-77
2022/01/13 06:24:13;;;;;;;55.05;28.00;;;-3.20;99.90;;;;;;4980468;28;90266;-76
2022/01/13 06:26:39;;;;;;;53.83;28.02;;;-3.10;99.90;;;;;;4976559;28;90248;-75
2022/01/13 06:29:04;;;;;;;49.65;25.92;;;-3.20;99.90;;;;;;4977194;28;90009;-75
2022/01/13 06:31:30;;;;;;;54.00;27.08;;;-3.30;99.90;;;;;;4976252;28;91077;-76
2022/01/13 06:33:56;;;;;;;54.58;27.33;;;-3.30;99.90;;;;;;4976510;28;89847;-76
2022/01/13 06:36:21;;;;;;;51.60;26.92;;;-3.30;99.90;;;;;;4975148;28;89379;-76
2022/01/13 06:38:48;;;;;;;50.00;26.45;;;-3.30;99.90;;;;;;4982281;28;92667;-75
2022/01/13 06:41:15;;;;;;;51.10;27.08;;;-3.40;99.90;;;;;;4974973;28;92128;-76
2022/01/13 06:43:41;;;;;;;50.90;27.58;;;-3.40;99.90;;;;;;4976757;28;91192;-76
2022/01/13 06:46:06;;;;;;;53.00;26.17;;;-3.30;99.90;;;;;;4976864;28;89512;-76
2022/01/13 06:48:32;;;;;;;56.60;26.33;;;-3.30;99.90;;;;;;4976834;28;90095;-76
2022/01/13 06:50:58;;;;;;;52.08;25.98;;;-3.40;99.90;;;;;;4975593;28;90354;-75
2022/01/13 06:53:24;;;;;;;52.08;26.38;;;-3.40;99.90;;;;;;4976605;28;90898;-78
2022/01/13 06:55:51;;;;;;;53.08;27.80;;;-3.40;99.90;;;;;;4975395;28;89356;-76
2022/01/13 06:58:16;;;;;;;54.20;28.25;;;-3.50;99.90;;;;;;4976847;28;89998;-76
2022/01/13 07:00:42;;;;;;;56.22;27.80;;;-3.60;99.90;;;;;;4980613;28;90434;-78
2022/01/13 07:03:08;;;;;;;60.90;28.92;;;-3.60;99.90;;;;;;4976442;28;91508;-76
2022/01/13 07:05:34;;;;;;;54.53;28.50;;;-3.50;99.90;;;;;;4994809;28;89299;-75
2022/01/13 07:08:00;;;;;;;59.47;29.02;;;-3.40;99.90;;;;;;4994352;28;92714;-75
2022/01/13 07:10:25;;;;;;;53.55;27.80;;;-3.40;99.90;;;;;;4994676;28;92778;-75
2022/01/13 07:12:51;;;;;;;53.15;28.60;;;-3.50;99.90;;;;;;4995141;28;90247;-75
2022/01/13 07:15:17;;;;;;;54.30;27.85;;;-3.60;99.90;;;;;;4994051;28;90566;-75
2022/01/13 07:17:42;;;;;;;52.13;27.00;;;-3.70;99.90;;;;;;4995876;28;89925;-75
2022/01/13 07:20:09;;;;;;;54.90;28.52;;;-3.70;99.90;;;;;;4995370;28;89992;-75
2022/01/13 07:22:37;;;;;;;50.75;28.42;;;-3.70;99.90;;;;;;4996437;28;92685;-75
2022/01/13 07:25:03;;;;;;;56.50;28.63;;;-3.70;99.90;;;;;;4999357;28;89267;-75
2022/01/13 07:27:29;;;;;;;60.22;29.98;;;-3.60;99.90;;;;;;4999657;28;89163;-75
2022/01/13 07:29:55;;;;;;;55.55;27.45;;;-3.60;99.90;;;;;;4999416;28;89184;-75
2022/01/13 07:32:20;;;;;;;55.53;28.38;;;-3.50;99.90;;;;;;4999268;28;88915;-75
2022/01/13 07:34:46;;;;;;;55.08;29.15;;;-3.50;99.90;;;;;;4998092;28;89352;-75
2022/01/13 07:37:11;;;;;;;52.00;27.02;;;-3.50;99.90;;;;;;4999261;28;89121;-75
2022/01/13 07:39:38;;;;;;;56.22;27.10;;;-3.50;99.90;;;;;;4997210;28;93741;-75
2022/01/13 07:42:04;;;;;;;48.10;24.95;;;-3.40;99.90;;;;;;4991329;28;89473;-76
2022/01/13 07:44:30;;;;;;;51.58;27.05;;;-3.40;99.90;;;;;;4979673;28;89535;-75
2022/01/13 07:46:56;;;;;;;48.42;25.88;;;-3.40;99.90;;;;;;4987046;28;90915;-75
2022/01/13 07:49:22;;;;;;;54.15;27.52;;;-3.40;99.90;;;;;;4997313;28;92659;-74
2022/01/13 07:51:47;;;;;;;52.25;27.08;;;-3.20;99.90;;;;;;4998703;28;89663;-75
2022/01/13 07:54:13;;;;;;;52.58;26.75;;;-3.20;99.90;;;;;;4998968;28;89350;-75
2022/01/13 07:56:38;;;;;;;58.03;28.75;;;-3.10;99.90;;;;;;4999237;28;88629;-75
2022/01/13 07:59:04;;;;;;;61.58;29.70;;;-3.00;99.90;;;;;;4998942;28;90013;-75
2022/01/13 08:01:29;;;;;;;64.40;30.35;;;-2.90;99.90;;;;;;4998605;28;89867;-75
2022/01/13 08:03:55;;;;;;;64.50;31.38;;;-2.80;99.90;;;;;;4996457;28;90316;-75
2022/01/13 08:06:20;;;;;;;64.70;30.55;;;-2.80;99.90;;;;;;4996869;28;91494;-74
2022/01/13 08:08:46;;;;;;;59.63;30.27;;;-2.80;99.90;;;;;;4997168;28;92605;-75
2022/01/13 08:11:11;;;;;;;65.28;31.50;;;-2.80;99.90;;;;;;4998475;28;90230;-74
2022/01/13 08:13:37;;;;;;;78.18;35.28;;;-2.80;99.90;;;;;;4998753;28;89163;-75
2022/01/13 08:16:07;;;;;;;76.93;34.55;;;-2.80;99.90;;;;;;4998835;28;89298;-75
2022/01/13 08:21:17;;;;;;;68.95;33.03;;;-2.60;99.90;;;;;;4999170;28;89013;-75
2022/01/13 08:23:43;;;;;;;67.82;32.13;;;-2.50;99.90;;;;;;4998452;28;89351;-75
2022/01/13 08:26:09;;;;;;;65.90;32.90;;;-2.40;99.90;;;;;;4998389;28;89651;-75
2022/01/13 08:28:35;;;;;;;63.53;33.00;;;-2.30;99.90;;;;;;4997864;28;91279;-75
2022/01/13 08:31:03;;;;;;;67.97;34.50;;;-2.30;99.90;;;;;;4996647;28;94111;-74
2022/01/13 08:33:29;;;;;;;64.05;32.50;;;-2.20;99.90;;;;;;4997999;28;89448;-74
2022/01/13 08:35:54;;;;;;;71.68;36.35;;;-2.20;99.90;;;;;;4998388;28;89233;-75
2022/01/13 08:38:21;;;;;;;69.80;35.67;;;-2.10;99.90;;;;;;4998421;28;89940;-75
2022/01/13 08:40:49;;;;;;;66.18;34.20;;;-2.00;99.90;;;;;;4998421;28;89986;-75
2022/01/13 08:43:16;;;;;;;66.72;33.67;;;-2.00;99.90;;;;;;4998362;28;89717;-75
2022/01/13 08:45:42;;;;;;;64.57;33.60;;;-1.90;99.90;;;;;;4998738;28;88883;-75
2022/01/13 08:48:09;;;;;;;71.40;35.28;;;-1.90;99.90;;;;;;4998139;28;90499;-75
2022/01/13 08:50:35;;;;;;;68.20;34.33;;;-1.90;99.90;;;;;;4997868;28;90078;-75
2022/01/13 08:53:00;;;;;;;70.45;34.47;;;-1.80;99.90;;;;;;4997448;28;90231;-75
2022/01/13 08:55:26;;;;;;;62.40;33.30;;;-1.80;99.90;;;;;;4998020;28;90230;-75
2022/01/13 08:57:52;;;;;;;60.67;31.58;;;-1.70;99.90;;;;;;4997951;28;89361;-75
2022/01/13 09:00:18;;;;;;;67.85;32.13;;;-1.60;99.90;;;;;;4995784;28;92721;-75
2022/01/13 09:02:45;;;;;;;58.42;31.45;;;-1.50;99.90;;;;;;4997459;28;89181;-75
2022/01/13 09:05:13;;;;;;;60.28;30.23;;;-1.50;99.90;;;;;;4996291;28;92584;-75
2022/01/13 09:07:39;;;;;;;57.95;29.85;;;-1.50;99.90;;;;;;4996518;28;91757;-75
2022/01/13 09:10:06;;;;;;;53.67;29.85;;;-1.50;99.90;;;;;;4998138;28;89895;-75
2022/01/13 09:12:32;;;;;;;55.90;28.95;;;-1.40;99.90;;;;;;4997427;28;89234;-75
2022/01/13 09:15:03;;;;;;;52.20;29.10;;;-1.40;99.90;;;;;;4996285;28;92570;-75
2022/01/13 09:17:32;;;;;;;54.78;29.67;;;-1.30;99.90;;;;;;4995574;28;93230;-75
2022/01/13 09:19:58;;;;;;;53.33;28.20;;;-1.20;99.90;;;;;;4997309;28;90084;-75
2022/01/13 09:22:23;;;;;;;50.53;28.30;;;-1.20;99.90;;;;;;4997276;28;89405;-75
2022/01/13 09:24:49;;;;;;;58.13;29.00;;;-1.20;99.90;;;;;;4997628;28;89750;-75
2022/01/13 09:27:15;;;;;;;57.72;29.70;;;-1.10;99.90;;;;;;4997209;28;89211;-75
2022/01/13 09:29:40;;;;;;;57.03;29.75;;;-1.10;99.90;;;;;;4997549;28;89653;-75
2022/01/13 09:32:06;;;;;;;54.40;30.23;;;-1.00;99.90;;;;;;4996836;28;89209;-75
2022/01/13 09:34:32;;;;;;;52.38;29.35;;;-0.90;99.90;;;;;;4997462;28;91832;-75
2022/01/13 09:36:58;;;;;;;50.83;28.90;;;-0.90;99.90;;;;;;4997114;28;89885;-75
2022/01/13 09:39:23;;;;;;;56.60;31.05;;;-0.80;99.90;;;;;;4997059;28;90319;-75
2022/01/13 09:41:51;;;;;;;51.83;29.10;;;-0.70;99.90;;;;;;4994683;28;90415;-75
2022/01/13 09:44:17;;;;;;;55.92;30.83;;;-0.60;99.90;;;;;;4996487;28;89485;-75
2022/01/13 09:46:45;;;;;;;52.45;29.75;;;-0.60;99.90;;;;;;4997242;28;89309;-75
2022/01/13 09:49:10;;;;;;;56.63;30.55;;;-0.50;99.90;;;;;;4997228;28;90186;-75
2022/01/13 09:51:37;;;;;;;52.45;29.23;;;-0.50;99.90;;;;;;4997076;28;89150;-75
2022/01/13 09:54:04;;;;;;;55.75;30.75;;;-0.40;99.90;;;;;;4995303;28;89929;-75
2022/01/13 09:56:32;;;;;;;54.95;30.63;;;-0.40;99.90;;;;;;4997057;28;89925;-75
2022/01/13 09:58:57;;;;;;;54.58;30.55;;;-0.30;99.90;;;;;;4995842;28;92465;-75
2022/01/13 10:01:23;;;;;;;50.25;29.67;;;-0.20;99.90;;;;;;4995345;28;89384;-75
2022/01/13 10:03:48;;;;;;;50.45;29.25;;;-0.20;99.90;;;;;;4996445;28;89290;-75
2022/01/13 10:06:19;;;;;;;48.33;28.90;;;-0.10;99.90;;;;;;4996393;28;90338;-75
2022/01/13 10:08:49;;;;;;;53.75;29.40;;;-0.10;99.90;;;;;;4995191;28;92811;-75
2022/01/13 10:11:39;;;;;;;52.75;29.98;;;0.00;99.90;;;;;;4996644;28;89172;-75
2022/01/13 10:16:23;;;;;;;51.42;29.17;;;0.10;99.90;;;;;;4996732;28;89612;-75
2022/01/13 10:17:05;;;;;;;48.58;28.23;;;0.20;99.90;;;;;;4996253;28;90016;-75
2022/01/13 10:19:42;;;;;;;50.20;29.98;;;0.20;99.90;;;;;;4996823;28;89848;-75
2022/01/13 10:22:07;;;;;;;52.08;29.58;;;0.30;99.90;;;;;;4996527;28;89280;-75
2022/01/13 10:24:35;;;;;;;47.90;28.02;;;0.30;99.90;;;;;;4997045;28;90588;-75
2022/01/13 10:27:08;;;;;;;47.25;28.85;;;0.40;99.90;;;;;;4996596;28;89402;-75
2022/01/13 10:30:11;;;;;;;53.90;28.23;;;0.50;99.90;;;;;;4996947;28;89628;-75
2022/01/13 10:32:38;;;;;;;47.15;27.20;;;0.60;99.90;;;;;;4951143;28;90288;-75
2022/01/13 10:35:11;;;;;;;47.67;28.73;;;0.70;99.90;;;;;;4995261;28;89827;-75
2022/01/13 10:37:38;;;;;;;48.70;28.35;;;0.80;99.90;;;;;;4996463;28;89789;-75
2022/01/13 10:40:12;;;;;;;48.03;27.55;;;0.80;99.90;;;;;;4996596;28;89692;-75
2022/01/13 10:45:26;;;;;;;46.88;28.73;;;1.00;99.90;;;;;;4995408;28;89566;-75
2022/01/13 10:47:59;;;;;;;47.30;27.90;;;1.00;99.90;;;;;;4994804;28;92203;-75
2022/01/13 10:50:33;;;;;;;50.90;28.58;;;1.10;99.90;;;;;;4996496;28;88965;-75
2022/01/13 10:53:10;;;;;;;42.55;27.15;;;1.20;99.90;;;;;;4996349;28;89192;-75
2022/01/13 10:55:49;;;;;;;45.55;26.92;;;1.20;99.90;;;;;;4995896;28;92706;-75
2022/01/13 10:58:17;;;;;;;44.03;26.63;;;1.30;99.90;;;;;;4999481;28;90350;-75
2022/01/13 11:00:44;;;;;;;40.42;26.02;;;1.30;99.90;;;;;;4999547;28;91731;-75
2022/01/13 11:03:15;;;;;;;43.25;25.98;;;1.40;99.90;;;;;;4999518;28;89446;-75
2022/01/13 11:05:49;;;;;;;44.47;23.45;;;1.40;99.90;;;;;;4999732;28;91710;-75
2022/01/13 11:08:22;;;;;;;39.58;23.65;;;1.50;99.90;;;;;;4998166;28;92623;-75
2022/01/13 11:10:49;;;;;;;36.95;23.10;;;1.60;99.90;;;;;;4999407;28;89557;-75
2022/01/13 11:13:21;;;;;;;41.22;24.02;;;1.70;99.90;;;;;;4997740;28;89231;-75
2022/01/13 11:15:52;;;;;;;41.72;23.27;;;1.70;99.90;;;;;;5022598;22;89017;-74
2022/01/13 11:18:20;;;;;;;35.42;22.55;;;1.80;99.90;;;;;;4999538;28;89297;-75
2022/01/13 11:20:47;;;;;;;43.10;24.92;;;1.80;99.90;;;;;;4999569;28;89201;-75
2022/01/13 11:23:16;;;;;;;38.65;23.77;;;1.90;99.90;;;;;;4998879;28;90214;-75
2022/01/13 11:25:43;;;;;;;36.70;23.27;;;1.90;99.90;;;;;;4999393;28;89644;-75
2022/01/13 11:28:08;;;;;;;41.60;24.38;;;2.00;99.90;;;;;;4999424;28;90115;-75
2022/01/13 11:30:34;;;;;;;35.97;23.10;;;2.10;99.90;;;;;;4997582;28;91851;-75
2022/01/13 11:33:00;;;;;;;36.42;23.67;;;2.20;99.90;;;;;;4999057;28;89235;-74
2022/01/13 11:35:30;;;;;;;38.33;22.42;;;2.30;99.90;;;;;;4999965;28;89848;-75
2022/01/13 11:37:57;;;;;;;36.30;23.05;;;2.40;99.90;;;;;;4998270;28;92003;-74
2022/01/13 11:40:28;;;;;;;42.60;23.67;;;2.50;99.90;;;;;;5000513;28;89171;-74
2022/01/13 11:43:02;;;;;;;36.83;22.73;;;2.60;99.90;;;;;;4998451;28;89374;-78
2022/01/13 11:45:29;;;;;;;34.70;22.55;;;2.70;99.90;;;;;;4996207;28;92585;-77
2022/01/13 11:48:21;;;;;;;35.47;22.08;;;2.90;99.90;;;;;;4992788;28;91563;-77
2022/01/13 11:50:52;;;;;;;39.47;22.45;;;3.00;99.90;;;;;;4998870;28;90996;-79
2022/01/13 11:53:32;;;;;;;30.45;20.52;;;3.20;99.90;;;;;;5002302;28;89009;-79
2022/01/13 11:56:09;;;;;;;29.55;18.58;;;3.30;99.90;;;;;;4999671;28;92057;-78
2022/01/13 11:58:45;;;;;;;35.03;21.15;;;3.40;99.90;;;;;;4992929;28;89418;-77
2022/01/13 12:01:24;;;;;;;31.98;18.45;;;3.60;99.90;;;;;;4989895;28;91323;-76
2022/01/13 12:04:05;;;;;;;27.77;18.83;;;3.60;99.90;;;;;;4986326;28;89313;-77
2022/01/13 12:06:31;;;;;;;31.02;19.58;;;3.60;99.90;;;;;;4988952;28;93140;-77
2022/01/13 12:08:58;;;;;;;26.50;17.58;;;3.60;99.90;;;;;;4989656;28;92618;-79
2022/01/13 12:11:57;;;;;;;28.35;18.48;;;3.60;99.90;;;;;;4987156;28;89272;-76
2022/01/13 12:14:22;;;;;;;29.05;18.42;;;3.70;99.90;;;;;;4962903;28;90283;-78
2022/01/13 12:16:52;;;;;;;30.65;20.23;;;3.70;99.90;;;;;;4988168;28;89183;-79
2022/01/13 12:19:28;;;;;;;36.40;23.38;;;3.80;99.90;;;;;;4992537;28;89374;-77
2022/01/13 12:22:03;;;;;;;34.45;20.50;;;4.00;99.90;;;;;;4986320;28;92926;-78
2022/01/13 12:24:51;;;;;;;34.97;18.60;;;4.10;99.90;;;;;;4996744;28;89439;-77
2022/01/13 12:27:24;;;;;;;26.67;17.58;;;4.30;99.90;;;;;;4968367;28;93052;-76
2022/01/13 12:30:03;;;;;;;27.60;17.70;;;4.50;99.90;;;;;;4989725;28;92678;-77
2022/01/13 12:32:41;;;;;;;26.05;17.90;;;4.60;99.90;;;;;;4988582;28;89548;-77
2022/01/13 12:35:10;;;;;;;25.95;18.00;;;4.80;99.90;;;;;;4978006;28;89290;-77
2022/01/13 12:37:39;;;;;;;29.30;18.10;;;4.90;99.90;;;;;;4978398;28;89387;-77
2022/01/13 12:40:19;;;;;;;28.25;17.67;;;5.10;99.90;;;;;;4983325;28;94087;-77
2022/01/13 12:42:51;;;;;;;27.08;17.15;;;5.10;99.90;;;;;;4996482;28;93001;-77
2022/01/13 12:45:29;;;;;;;25.65;16.38;;;5.30;99.90;;;;;;4996373;28;89330;-77
2022/01/13 12:48:06;;;;;;;28.15;17.25;;;5.30;99.90;;;;;;4998537;28;89166;-78
2022/01/13 12:50:36;;;;;;;24.42;16.85;;;5.40;99.90;;;;;;4998434;28;89176;-77
2022/01/13 12:53:08;;;;;;;27.13;15.68;;;5.50;99.90;;;;;;4998791;28;89236;-77
2022/01/13 12:55:36;;;;;;;24.73;16.52;;;5.50;99.90;;;;;;4998997;28;89170;-78
2022/01/13 12:58:02;;;;;;;25.50;16.33;;;5.70;99.90;;;;;;4998629;28;93018;-77
2022/01/13 13:00:28;;;;;;;25.95;16.50;;;6.00;99.90;;;;;;4998755;28;90491;-77
2022/01/13 13:03:20;;;;;;;26.98;17.80;;;6.00;99.90;;;;;;4997838;28;89779;-77
2022/01/13 13:05:48;;;;;;;25.80;17.50;;;6.10;99.90;;;;;;4994004;28;90279;-78
2022/01/13 13:08:24;;;;;;;27.58;16.98;;;6.30;99.90;;;;;;4990868;28;89291;-79
2022/01/13 13:10:56;;;;;;;28.05;18.00;;;6.10;99.90;;;;;;4978401;28;90564;-79
2022/01/13 13:13:23;;;;;;;24.38;16.13;;;6.20;99.90;;;;;;4979879;28;89302;-78
2022/01/13 13:15:54;;;;;;;28.75;16.13;;;6.20;99.90;;;;;;4980241;28;89248;-78
2022/01/13 13:18:22;;;;;;;25.58;16.75;;;6.10;99.90;;;;;;4980315;28;90061;-78
2022/01/13 13:20:49;;;;;;;25.35;16.02;;;6.00;99.90;;;;;;4979761;28;91394;-78
2022/01/13 13:23:18;;;;;;;26.10;16.17;;;5.90;99.90;;;;;;4980185;28;89872;-78
2022/01/13 13:25:47;;;;;;;24.70;17.08;;;5.90;99.90;;;;;;4978675;28;89146;-78
2022/01/13 13:28:38;;;;;;;27.15;17.25;;;6.00;99.90;;;;;;4978644;28;93198;-78
2022/01/13 13:31:13;;;;;;;25.25;16.08;;;5.90;99.90;;;;;;4978163;28;93210;-78
2022/01/13 13:33:57;;;;;;;22.20;15.18;;;5.80;99.90;;;;;;4978355;28;93800;-78
2022/01/13 13:36:35;;;;;;;24.40;15.07;;;5.60;99.90;;;;;;4978856;28;89290;-78
2022/01/13 13:39:25;;;;;;;23.10;14.88;;;5.40;99.90;;;;;;4978170;28;92884;-78
2022/01/13 13:41:52;;;;;;;24.60;15.98;;;5.30;99.90;;;;;;4979609;28;90299;-78
2022/01/13 13:44:24;;;;;;;23.00;15.07;;;5.20;99.90;;;;;;4977384;28;91983;-78
2022/01/13 13:47:00;;;;;;;22.55;15.23;;;5.20;99.90;;;;;;4979568;28;89306;-78
2022/01/13 13:49:26;;;;;;;21.48;15.10;;;5.10;99.90;;;;;;4978411;28;92616;-78
2022/01/13 13:52:00;;;;;;;21.33;15.13;;;5.10;99.90;;;;;;4977579;28;91862;-78
2022/01/13 13:54:45;;;;;;;23.83;15.77;;;5.00;99.90;;;;;;4978663;28;89880;-78
2022/01/13 13:57:12;;;;;;;24.75;16.30;;;5.00;99.90;;;;;;4977759;28;90377;-77
2022/01/13 13:59:47;;;;;;;23.27;16.23;;;4.90;99.90;;;;;;4977891;28;90254;-77
2022/01/13 14:02:14;;;;;;;24.10;15.90;;;5.00;99.90;;;;;;4977197;28;89402;-77
2022/01/13 14:04:45;;;;;;;25.15;15.90;;;5.00;99.90;;;;;;4976693;28;90546;-76
2022/01/13 14:07:25;;;;;;;24.20;16.25;;;5.10;99.90;;;;;;4977425;28;89224;-76
2022/01/13 14:10:05;;;;;;;21.10;14.75;;;5.20;99.90;;;;;;4977122;28;89325;-77
2022/01/13 14:12:38;;;;;;;21.77;15.45;;;5.20;99.90;;;;;;4975298;28;91973;-77
2022/01/13 14:15:21;;;;;;;20.85;13.77;;;5.20;99.90;;;;;;4976836;28;89081;-77
2022/01/13 14:17:53;;;;;;;24.98;15.70;;;5.20;99.90;;;;;;4976843;28;89396;-77
2022/01/13 14:20:24;;;;;;;25.15;16.08;;;5.20;99.90;;;;;;4977105;28;89177;-77
2022/01/13 14:23:01;;;;;;;20.17;13.52;;;5.30;99.90;;;;;;4977027;28;91004;-76
2022/01/13 14:25:37;;;;;;;23.40;14.93;;;5.30;99.90;;;;;;4978102;28;91268;-78
2022/01/13 14:28:05;;;;;;;22.50;14.85;;;5.40;99.90;;;;;;4977393;28;89328;-79
2022/01/13 14:30:41;;;;;;;32.40;18.80;;;5.40;99.90;;;;;;4979413;28;89357;-78
2022/01/13 14:33:18;;;;;;;21.67;14.23;;;5.50;99.90;;;;;;4985090;28;90412;-80
2022/01/13 14:35:46;;;;;;;22.58;14.52;;;5.60;99.90;;;;;;4985723;28;90006;-79
2022/01/13 14:38:15;;;;;;;21.73;14.60;;;5.60;99.90;;;;;;4988668;28;89164;-77
2022/01/13 14:40:46;;;;;;;31.50;20.23;;;5.70;99.90;;;;;;4982232;28;88893;-76
2022/01/13 14:43:18;;;;;;;30.85;19.80;;;5.70;99.90;;;;;;4980936;28;90028;-76
2022/01/13 14:46:01;;;;;;;35.00;20.08;;;5.70;99.90;;;;;;4981985;28;89300;-76
2022/01/13 14:48:28;;;;;;;34.20;20.50;;;5.60;99.90;;;;;;4979541;28;90358;-76
2022/01/13 14:51:00;;;;;;;29.73;20.30;;;5.50;99.90;;;;;;4978642;28;92632;-76
2022/01/13 14:53:25;;;;;;;35.95;22.70;;;5.40;99.90;;;;;;4980245;28;89335;-77
2022/01/13 14:55:51;;;;;;;35.15;22.38;;;5.30;99.90;;;;;;4980028;28;89316;-76
2022/01/13 14:58:17;;;;;;;38.40;23.33;;;5.20;99.90;;;;;;4979852;28;89564;-76
2022/01/13 15:00:43;;;;;;;41.13;24.13;;;5.20;99.90;;;;;;4986957;28;90123;-77
2022/01/13 15:03:09;;;;;;;40.42;24.30;;;5.10;99.90;;;;;;4990074;28;90500;-76
2022/01/13 15:05:34;;;;;;;40.28;24.63;;;5.00;99.90;;;;;;4987102;28;91360;-76
2022/01/13 15:08:00;;;;;;;37.72;25.00;;;4.90;99.90;;;;;;4990487;28;89197;-76
2022/01/13 15:10:27;;;;;;;40.33;25.13;;;4.70;99.90;;;;;;4989347;28;89688;-77
2022/01/13 15:12:53;;;;;;;41.17;25.48;;;4.70;99.90;;;;;;4987817;28;90879;-76
2022/01/13 15:15:18;;;;;;;37.65;25.13;;;4.60;99.90;;;;;;4988033;28;90597;-76
2022/01/13 15:17:44;;;;;;;41.65;26.13;;;4.50;99.90;;;;;;4991377;28;89154;-76
2022/01/13 15:20:10;;;;;;;43.08;25.02;;;4.40;99.90;;;;;;5000139;28;89370;-77
2022/01/13 15:22:36;;;;;;;37.50;23.88;;;4.30;99.90;;;;;;4990895;28;91950;-76
2022/01/13 15:25:02;;;;;;;38.50;24.17;;;4.30;99.90;;;;;;4989412;28;89584;-76
2022/01/13 15:27:27;;;;;;;39.45;25.92;;;4.20;99.90;;;;;;4988222;28;89361;-76
2022/01/13 15:29:55;;;;;;;42.92;27.45;;;4.00;99.90;;;;;;4989212;28;88886;-76
2022/01/13 15:32:21;;;;;;;44.22;28.27;;;3.90;99.90;;;;;;4990511;28;90076;-77
2022/01/13 15:34:47;;;;;;;41.55;26.20;;;3.80;99.90;;;;;;4985935;28;89956;-76
2022/01/13 15:37:12;;;;;;;37.90;22.02;;;3.60;99.90;;;;;;4986108;28;90235;-76
2022/01/13 15:39:38;;;;;;;32.05;20.27;;;3.50;99.90;;;;;;4989469;28;89248;-76
2022/01/13 15:42:04;;;;;;;32.85;20.65;;;3.40;99.90;;;;;;4987334;28;89186;-77
2022/01/13 15:44:30;;;;;;;34.63;21.67;;;3.30;99.90;;;;;;4982528;28;89958;-78
2022/01/13 15:46:55;;;;;;;38.88;23.10;;;3.10;99.90;;;;;;4979871;28;89288;-75
2022/01/13 15:49:21;;;;;;;39.05;22.27;;;3.00;99.90;;;;;;4980520;28;89306;-76
2022/01/13 15:51:46;;;;;;;35.63;22.67;;;2.90;99.90;;;;;;4979996;28;90079;-78
2022/01/13 15:54:12;;;;;;;38.17;23.77;;;2.80;99.90;;;;;;4980343;28;92799;-78
2022/01/13 15:56:38;;;;;;;35.85;22.55;;;2.60;99.90;;;;;;4980191;28;89236;-76
2022/01/13 15:59:03;;;;;;;41.53;24.08;;;2.50;99.90;;;;;;4981182;28;89690;-78
2022/01/13 16:01:29;;;;;;;37.50;22.85;;;2.40;99.90;;;;;;4977589;28;93858;-79
2022/01/13 16:03:54;;;;;;;36.45;23.23;;;2.40;99.90;;;;;;4980846;28;90875;-78
2022/01/13 16:06:20;;;;;;;36.45;22.80;;;2.30;99.90;;;;;;4978558;28;89212;-77
2022/01/13 16:08:45;;;;;;;38.83;23.73;;;2.20;99.90;;;;;;4978791;28;92398;-80
2022/01/13 16:11:11;;;;;;;39.95;24.23;;;2.10;99.90;;;;;;4979665;28;89705;-77
2022/01/13 16:13:43;;;;;;;39.75;24.48;;;2.00;99.90;;;;;;4980611;28;90191;-80
2022/01/13 16:16:09;;;;;;;45.33;26.83;;;1.90;99.90;;;;;;4980308;28;89241;-77
2022/01/13 16:18:37;;;;;;;42.83;25.90;;;1.80;99.90;;;;;;4978725;28;91577;-76
2022/01/13 16:21:02;;;;;;;42.95;27.05;;;1.70;99.90;;;;;;4979590;28;89895;-77
2022/01/13 16:23:28;;;;;;;43.45;26.92;;;1.60;99.90;;;;;;4992361;28;91351;-76
2022/01/13 16:25:54;;;;;;;42.15;25.83;;;1.50;99.90;;;;;;4999536;28;90202;-79
2022/01/13 16:28:20;;;;;;;47.65;26.90;;;1.40;99.90;;;;;;4997952;28;92833;-78
2022/01/13 16:30:47;;;;;;;43.30;26.75;;;1.30;99.90;;;;;;4999105;28;91964;-79
2022/01/13 16:33:13;;;;;;;42.28;25.27;;;1.20;99.90;;;;;;4997067;28;93116;-76
2022/01/13 16:35:39;;;;;;;44.90;26.13;;;1.10;99.90;;;;;;4999236;28;89646;-76
2022/01/13 16:38:05;;;;;;;41.28;24.30;;;1.00;99.90;;;;;;4998116;28;89656;-74
2022/01/13 16:40:36;;;;;;;46.03;26.58;;;0.90;99.90;;;;;;4996941;28;89136;-76
2022/01/13 16:43:04;;;;;;;43.67;26.05;;;0.80;99.90;;;;;;4996678;28;90852;-75
2022/01/13 16:45:36;;;;;;;43.88;26.35;;;0.80;99.90;;;;;;4993908;28;89750;-75
2022/01/13 16:48:06;;;;;;;45.50;27.40;;;0.70;99.90;;;;;;4996056;28;89841;-75
2022/01/13 16:50:32;;;;;;;44.35;26.67;;;0.60;99.90;;;;;;4992639;28;95197;-75
2022/01/13 16:53:04;;;;;;;52.22;27.73;;;0.60;99.90;;;;;;4995104;28;93707;-76
2022/01/13 16:55:31;;;;;;;48.63;26.98;;;0.50;99.90;;;;;;4996722;28;89175;-75
2022/01/13 16:57:57;;;;;;;47.05;29.70;;;0.50;99.90;;;;;;4998487;28;89173;-75
2022/01/13 17:00:23;;;;;;;54.95;31.17;;;0.50;99.90;;;;;;4998829;28;90528;-75
2022/01/13 17:02:49;;;;;;;52.08;30.73;;;0.40;99.90;;;;;;4992949;28;89277;-75
2022/01/13 17:05:15;;;;;;;51.08;30.35;;;0.40;99.90;;;;;;4996337;28;89477;-75
2022/01/13 17:07:42;;;;;;;51.55;31.35;;;0.30;99.90;;;;;;4996799;28;92154;-76
2022/01/13 17:10:08;;;;;;;52.63;31.55;;;0.30;99.90;;;;;;4997464;28;89695;-77
2022/01/13 17:12:35;;;;;;;51.58;31.10;;;0.20;99.90;;;;;;4997046;28;90122;-77
2022/01/13 17:15:02;;;;;;;52.38;30.83;;;0.20;99.90;;;;;;5020605;22;90228;-75
2022/01/13 17:17:28;;;;;;;51.50;30.25;;;0.10;99.90;;;;;;5019105;28;92177;-75
2022/01/13 17:20:08;;;;;;;51.55;30.10;;;0.10;99.90;;;;;;5020700;28;90746;-75
2022/01/13 17:22:42;;;;;;;53.47;31.38;;;0.00;99.90;;;;;;5022550;28;89585;-76
2022/01/13 17:25:13;;;;;;;52.58;30.55;;;0.00;99.90;;;;;;5011860;28;89222;-77
2022/01/13 17:27:40;;;;;;;49.25;29.92;;;0.00;99.90;;;;;;5001867;28;89705;-75
2022/01/13 17:30:10;;;;;;;48.08;29.27;;;0.00;99.90;;;;;;4999681;28;94172;-76
2022/01/13 17:32:35;;;;;;;54.30;29.98;;;-0.10;99.90;;;;;;4999393;28;89250;-75
2022/01/13 17:35:01;;;;;;;51.42;29.75;;;-0.10;99.90;;;;;;4992258;28;89263;-75
2022/01/13 17:37:27;;;;;;;46.67;27.83;;;-0.10;99.90;;;;;;4979358;28;89336;-77
2022/01/13 17:39:54;;;;;;;53.13;29.75;;;-0.20;99.90;;;;;;4977743;28;90635;-77
2022/01/13 17:42:20;;;;;;;51.20;28.65;;;-0.20;99.90;;;;;;4988295;28;89706;-74
2022/01/13 17:44:46;;;;;;;48.17;27.92;;;-0.20;99.90;;;;;;4998529;28;89331;-76
2022/01/13 17:47:18;;;;;;;50.85;28.08;;;-0.30;99.90;;;;;;4998338;28;89339;-76